Time;durP1;ratioP1;P1;durP2;ratioP2;P2;SDS_P1;SDS_P2;PMS_P1;PMS_P2;Temp;Humidity;BMP_temperature;BMP_pressure;BME280_temperature;BME280_humidity;BME280_pressure;Samples;Min_cycle;Max_cycle;Signal;HPM_P1;HPM_P2
2022/03/10 00:00:40;;;;;;;;;74.00;53.00;;;;;0.45;74.23;100182.28;6283880;20;2500275;-43
2022/03/10 00:03:09;;;;;;;;;78.00;55.33;;;;;0.53;74.42;100175.13;6290241;20;2895550;-42
2022/03/10 00:05:38;;;;;;;;;76.00;56.00;;;;;0.89;73.31;100183.44;6314324;20;2499443;-42
2022/03/10 00:08:07;;;;;;;;;73.00;55.50;;;;;0.85;73.38;100176.44;6287502;20;2878419;-43
2022/03/10 00:10:37;;;;;;;;;86.67;64.67;;;;;0.73;73.99;100187.19;6284369;20;3651343;-42
2022/03/10 00:13:07;;;;;;;;;87.67;66.33;;;;;1.17;73.73;100183.03;6320381;20;3655442;-43
2022/03/10 00:15:37;;;;;;;;;85.00;64.33;;;;;1.36;72.20;100192.41;6316400;20;3651829;-42
2022/03/10 00:18:07;;;;;;;;;89.00;66.67;;;;;1.30;72.83;100192.53;6316866;20;3641941;-41
2022/03/10 00:20:34;;;;;;;;;88.50;68.00;;;;;1.28;73.59;100195.19;6313902;20;2506611;-45
2022/03/10 00:23:04;;;;;;;;;90.67;68.00;;;;;1.29;73.60;100183.72;6287304;20;3634735;-42
2022/03/10 00:25:34;;;;;;;;;92.00;67.33;;;;;1.39;73.14;100189.72;6317140;20;3657500;-42
2022/03/10 00:28:04;;;;;;;;;85.33;65.33;;;;;1.58;72.73;100178.84;6318445;20;3652472;-44
2022/03/10 00:30:33;;;;;;;;;93.33;68.00;;;;;1.34;73.61;100186.28;6317606;20;3644449;-41
2022/03/10 00:33:03;;;;;;;;;88.67;66.00;;;;;1.61;71.96;100189.41;6320333;20;3638977;-42
2022/03/10 00:35:33;;;;;;;;;86.00;64.33;;;;;1.63;72.64;100190.22;6316759;20;3644005;-42
2022/03/10 00:38:03;;;;;;;;;93.00;68.00;;;;;1.84;72.17;100192.47;6315859;20;3638917;-42
2022/03/10 00:40:32;;;;;;;;;86.67;62.33;;;;;1.77;72.48;100187.34;6314318;20;3666916;-42
2022/03/10 00:43:02;;;;;;;;;87.33;63.00;;;;;1.56;73.97;100194.75;6318934;20;3658710;-43
2022/03/10 00:45:31;;;;;;;;;82.67;62.33;;;;;1.89;73.11;100205.66;6318973;20;2880594;-43
2022/03/10 00:48:00;;;;;;;;;80.00;63.00;;;;;1.77;73.47;100198.81;6317901;20;2884679;-43
2022/03/10 00:50:30;;;;;;;;;81.00;58.33;;;;;1.83;73.48;100198.69;6285335;20;2898296;-46
2022/03/10 00:53:00;;;;;;;;;80.33;57.00;;;;;1.94;73.47;100196.72;6318340;20;3650243;-44
2022/03/10 00:55:29;;;;;;;;;76.00;57.00;;;;;1.66;74.92;100195.44;6318542;20;2872253;-52
2022/03/10 00:57:58;;;;;;;;;75.67;56.67;;;;;2.06;74.67;100197.41;6287756;20;2889954;-51
2022/03/10 01:00:29;;;;;;;;;70.00;51.50;;;;;2.05;73.16;100203.59;6317024;20;2882677;-54
2022/03/10 01:02:58;;;;;;;;;74.00;58.00;;;;;2.07;74.03;100199.16;6285288;20;2877418;-51
2022/03/10 01:05:28;;;;;;;;;73.67;55.67;;;;;1.91;74.22;100204.72;6286719;20;3635734;-51
2022/03/10 01:07:58;;;;;;;;;75.33;53.00;;;;;1.95;73.85;100198.47;6316058;20;2887807;-51
2022/03/10 01:10:27;;;;;;;;;63.00;51.50;;;;;1.85;72.79;100198.69;6313112;20;2497135;-49
2022/03/10 01:12:55;;;;;;;;;67.50;51.00;;;;;1.91;71.96;100212.66;6283171;20;2500759;-48
2022/03/10 01:15:29;;;;;;;;;76.50;59.00;;;;;1.71;71.17;100198.91;6285381;20;2882566;-48
2022/03/10 01:17:58;;;;;;;;;70.00;53.00;;;;;1.50;70.78;100208.97;6285445;20;2877452;-48
2022/03/10 01:20:28;;;;;;;;;86.00;61.00;;;;;1.25;73.77;100212.88;6281607;20;3658729;-50
2022/03/10 01:22:57;;;;;;;;;87.33;64.00;;;;;1.68;73.03;100204.25;6313667;20;2900294;-48
2022/03/10 01:25:27;;;;;;;;;89.67;66.33;;;;;1.75;73.12;100208.53;6316623;20;3653337;-50
2022/03/10 01:27:57;;;;;;;;;87.67;62.00;;;;;2.10;72.00;100209.69;6319386;20;3660789;-47
2022/03/10 01:30:26;;;;;;;;;83.67;64.33;;;;;1.86;73.56;100211.00;6316622;20;3642936;-49
2022/03/10 01:32:56;;;;;;;;;88.33;66.00;;;;;1.61;74.42;100210.56;6318272;20;3654398;-52
2022/03/10 01:35:25;;;;;;;;;74.00;53.00;;;;;2.05;73.73;100216.84;6314856;20;2770035;-51
2022/03/10 01:37:54;;;;;;;;;76.50;60.00;;;;;2.40;72.89;100219.72;6316296;20;2885812;-49
2022/03/10 01:40:23;;;;;;;;;78.33;59.00;;;;;2.51;72.86;100221.28;6284234;20;2889877;-49
2022/03/10 01:42:53;;;;;;;;;80.00;63.33;;;;;2.38;73.65;100226.81;6316892;20;2876484;-47
2022/03/10 01:45:22;;;;;;;;;75.00;59.33;;;;;2.55;73.76;100228.25;6317228;20;2883719;-49
2022/03/10 01:47:50;;;;;;;;;77.00;59.00;;;;;2.53;74.78;100227.41;6315302;20;2500334;-47
2022/03/10 01:50:19;;;;;;;;;69.50;54.50;;;;;2.24;75.27;100228.84;6282481;20;2877325;-51
2022/03/10 01:52:49;;;;;;;;;74.00;54.33;;;;;2.17;75.95;100229.88;6284445;20;2873555;-54
2022/03/10 01:55:17;;;;;;;;;71.00;56.50;;;;;2.24;76.05;100241.19;6313757;20;2500253;-54
2022/03/10 01:57:47;;;;;;;;;68.00;53.67;;;;;2.55;74.63;100244.16;6283533;20;2866913;-50
2022/03/10 02:00:17;;;;;;;;;70.50;53.00;;;;;2.23;76.41;100237.69;6312666;20;2876434;-51
2022/03/10 02:02:45;;;;;;;;;71.00;56.00;;;;;2.56;75.83;100240.59;6279486;20;2499280;-52
2022/03/10 02:05:15;;;;;;;;;76.33;56.67;;;;;2.33;76.43;100243.69;6286684;20;2886719;-51
2022/03/10 02:10:34;;;;;;;;;49.50;43.00;;;;;2.52;77.69;100249.50;6276338;20;2854564;-48
2022/03/10 02:13:02;;;;;;;;;59.00;44.00;;;;;2.10;80.32;100252.94;6280174;20;2508719;-49
2022/03/10 02:18:21;;;;;;;;;45.00;33.50;;;;;2.57;77.11;100256.47;6281239;20;2500261;-50
2022/03/10 02:20:50;;;;;;;;;37.00;25.50;;;;;2.42;77.13;100255.00;6283509;20;2871102;-48
2022/03/10 02:23:19;;;;;;;;;34.67;25.00;;;;;2.71;75.60;100256.19;6280688;20;3602323;-49
2022/03/10 02:25:48;;;;;;;;;24.00;23.00;;;;;2.66;74.36;100262.47;6284508;20;2828372;-47
2022/03/10 02:28:18;;;;;;;;;31.00;26.00;;;;;2.54;74.26;100269.78;6283267;20;2500381;-49
2022/03/10 02:30:46;;;;;;;;;26.33;26.00;;;;;2.61;73.66;100270.56;6286165;20;3569064;-47
2022/03/10 02:33:15;;;;;;;;;29.00;18.50;;;;;2.72;72.23;100273.84;6286040;20;2851285;-45
2022/03/10 02:35:43;;;;;;;;;13.25;10.00;;;;;2.83;71.25;100277.16;6302449;20;1826296;-46
2022/03/10 02:38:19;;;;;;;;;20.00;16.00;;;;;2.62;70.29;100277.59;6313844;20;2823276;-47
2022/03/10 02:40:49;;;;;;;;;20.33;18.67;;;;;2.78;69.61;100281.69;6314764;20;3563762;-46
2022/03/10 02:43:20;;;;;;;;;19.67;15.00;;;;;2.80;68.71;100286.97;6312979;20;3553444;-46
2022/03/10 02:45:48;;;;;;;;;20.50;17.00;;;;;2.91;68.32;100292.03;6314084;20;2837762;-46
2022/03/10 02:48:17;;;;;;;;;11.00;7.00;;;;;2.62;67.02;100290.84;6285333;20;2764838;-46
2022/03/10 02:50:47;;;;;;;;;11.00;11.00;;;;;2.62;67.04;100298.78;6311141;20;2781613;-44
2022/03/10 02:53:16;;;;;;;;;13.50;13.50;;;;;2.60;64.90;100300.59;6285107;20;2789817;-43
2022/03/10 02:55:45;;;;;;;;;8.00;8.00;;;;;2.52;63.73;100307.81;6285295;20;2735741;-43
2022/03/10 02:58:13;;;;;;;;;6.50;4.00;;;;;2.52;63.32;100318.41;6335698;20;1827601;-43
2022/03/10 03:00:44;;;;;;;;;18.50;18.50;;;;;2.39;63.44;100315.13;6337774;20;2844127;-44
2022/03/10 03:03:12;;;;;;;;;18.00;11.00;;;;;2.35;63.81;100319.59;6280374;20;2798302;-43
2022/03/10 03:05:43;;;;;;;;;17.00;11.20;;;;;2.66;64.51;100326.09;6310531;20;2799355;-43
2022/03/10 03:08:15;;;;;;;;;16.71;14.43;;;;;2.47;64.68;100328.22;6328883;20;1815379;-44
2022/03/10 03:10:44;;;;;;;;;22.60;16.60;;;;;2.45;64.87;100332.69;6342010;20;2821132;-43
2022/03/10 03:13:13;;;;;;;;;15.00;9.75;;;;;2.48;64.16;100322.06;6306873;20;1825512;-46
2022/03/10 03:15:41;;;;;;;;;20.50;17.00;;;;;2.39;63.79;100331.88;6318700;20;2810708;-43
2022/03/10 03:18:10;;;;;;;;;13.75;11.25;;;;;2.36;63.42;100337.25;6306595;20;1822648;-43
2022/03/10 03:20:38;;;;;;;;;12.00;9.00;;;;;2.16;62.99;100342.03;6316574;20;2760673;-43
2022/03/10 03:23:06;;;;;;;;;16.50;13.50;;;;;2.14;62.79;100344.69;6287430;20;2819014;-43
2022/03/10 03:25:34;;;;;;;;;14.00;12.00;;;;;2.38;61.72;100342.53;6287493;20;2793006;-44
2022/03/10 03:28:02;;;;;;;;;14.50;9.00;;;;;2.34;61.88;100347.03;6290701;20;2776274;-45
2022/03/10 03:30:32;;;;;;;;;10.50;9.50;;;;;2.22;60.78;100354.31;6324293;20;1817043;-46
2022/03/10 03:33:00;;;;;;;;;10.67;4.67;;;;;2.06;60.87;100346.59;6288841;20;3490840;-44
2022/03/10 03:35:31;;;;;;;;;9.00;9.00;;;;;2.26;59.92;100353.31;6303718;20;1831631;-48
2022/03/10 03:37:58;;;;;;;;;14.00;13.00;;;;;2.17;59.77;100351.72;6317522;20;2796097;-45
2022/03/10 03:40:27;;;;;;;;;12.67;9.67;;;;;2.16;60.01;100373.81;6285647;20;3500246;-43
2022/03/10 03:42:54;;;;;;;;;4.00;4.00;;;;;2.00;59.65;100367.00;6286438;20;3446153;-45
2022/03/10 03:45:22;;;;;;;;;17.00;12.00;;;;;1.98;59.30;100381.16;6317060;20;2796315;-44
2022/03/10 03:47:51;;;;;;;;;7.50;4.50;;;;;1.97;59.28;100378.50;6307044;20;1825330;-44
2022/03/10 03:50:19;;;;;;;;;14.50;9.00;;;;;1.88;58.64;100382.19;6317460;20;2775265;-44
2022/03/10 03:52:47;;;;;;;;;9.00;9.00;;;;;2.01;59.12;100385.53;6305476;20;1811728;-44
2022/03/10 03:55:16;;;;;;;;;19.67;15.67;;;;;2.03;58.22;100396.06;6316304;20;3548208;-44
2022/03/10 03:57:44;;;;;;;;;16.50;11.00;;;;;1.93;58.29;100388.28;6288290;20;2783628;-43
2022/03/10 04:00:15;;;;;;;;;10.67;7.33;;;;;1.86;58.03;100396.34;6286316;20;3474274;-43
2022/03/10 04:02:45;;;;;;;;;41.00;33.00;;;;;2.03;58.15;100394.31;6285114;20;2500443;-44
2022/03/10 04:05:16;;;;;;;;;22.67;17.67;;;;;1.98;58.06;100391.75;6289781;20;3569073;-44
2022/03/10 04:07:44;;;;;;;;;13.50;13.00;;;;;2.12;57.82;100402.13;6320240;20;2789860;-47
2022/03/10 04:10:11;;;;;;;;;14.00;14.00;;;;;1.86;58.20;100402.50;6285171;20;2803374;-46
2022/03/10 04:12:39;;;;;;;;;10.00;8.67;;;;;1.73;57.29;100400.94;6289993;20;3482527;-45
2022/03/10 04:15:08;;;;;;;;;9.67;8.33;;;;;1.74;56.88;100402.69;6286798;20;3461783;-45
2022/03/10 04:17:37;;;;;;;;;9.75;9.00;;;;;1.77;56.53;100405.28;6336505;20;1818565;-45
2022/03/10 04:20:08;;;;;;;;;6.33;5.33;;;;;1.62;56.15;100409.00;6317948;20;3457664;-46
2022/03/10 04:22:36;;;;;;;;;11.00;9.50;;;;;1.68;55.48;100408.06;6317599;20;2763305;-46
2022/03/10 04:25:06;;;;;;;;;12.50;8.00;;;;;1.70;55.05;100420.38;6287116;20;2758696;-45
2022/03/10 04:27:35;;;;;;;;;7.67;4.67;;;;;1.67;54.65;100411.59;6320575;20;2742032;-49
2022/03/10 04:30:05;;;;;;;;;16.00;12.50;;;;;1.57;54.39;100416.13;6316457;20;2805498;-48
2022/03/10 04:32:47;;;;;;;;;12.33;10.67;;;;;1.59;54.38;100434.66;6285453;20;3504640;-47
2022/03/10 04:35:19;;;;;;;;;8.00;8.00;;;;;1.81;53.84;100441.41;6327327;20;1804679;-46
2022/03/10 04:37:51;;;;;;;;;13.00;8.00;;;;;1.72;53.72;100439.75;6286226;20;2773306;-45
2022/03/10 04:40:20;;;;;;;;;9.00;8.00;;;;;1.61;54.00;100439.03;6283371;20;2753367;-45
2022/03/10 04:42:50;;;;;;;;;6.00;5.00;;;;;1.64;54.02;100444.28;6287042;20;3461782;-48
2022/03/10 04:45:18;;;;;;;;;14.00;12.00;;;;;1.46;54.39;100445.38;6315456;20;2793983;-47
2022/03/10 04:47:49;;;;;;;;;10.83;9.67;;;;;1.40;54.18;100447.25;6324933;20;1833588;-44
2022/03/10 04:50:19;;;;;;;;;12.00;9.00;;;;;1.50;54.54;100456.78;6282785;20;2769051;-46
2022/03/10 04:52:47;;;;;;;;;15.50;12.00;;;;;1.34;54.91;100456.09;6286495;20;2785715;-45
2022/03/10 04:55:17;;;;;;;;;12.33;8.00;;;;;1.36;55.11;100456.09;6326010;20;1808704;-45
2022/03/10 04:57:51;;;;;;;;;9.50;9.00;;;;;1.35;55.27;100463.16;6306722;20;1824340;-46
2022/03/10 05:00:20;;;;;;;;;5.50;5.00;;;;;1.60;56.17;100470.81;6335997;20;1825353;-48
2022/03/10 05:02:49;;;;;;;;;13.00;9.50;;;;;1.30;55.33;100473.78;6329933;20;1824442;-45
2022/03/10 05:05:18;;;;;;;;;10.50;8.00;;;;;1.38;55.59;100472.84;6336568;20;1820510;-45
2022/03/10 05:07:46;;;;;;;;;23.50;15.50;;;;;1.45;56.11;100480.69;6318900;20;2822336;-46
2022/03/10 05:10:16;;;;;;;;;8.50;8.00;;;;;1.53;55.24;100481.47;6285509;20;2748199;-46
2022/03/10 05:12:53;;;;;;;;;16.50;14.00;;;;;1.32;55.41;100489.66;6287147;20;2798214;-47
2022/03/10 05:15:26;;;;;;;;;12.00;9.00;;;;;1.63;55.07;100489.28;6286912;20;2761702;-44
2022/03/10 05:17:55;;;;;;;;;19.00;18.00;;;;;1.37;55.03;100492.22;6318144;20;2832565;-45
2022/03/10 05:20:25;;;;;;;;;8.67;6.00;;;;;1.80;55.08;100487.31;6285464;20;3451282;-45
2022/03/10 05:22:58;;;;;;;;;14.00;10.20;;;;;1.27;55.75;100502.94;6335035;20;2794096;-46
2022/03/10 05:25:39;;;;;;;;;19.20;17.40;;;;;1.40;55.57;100497.50;6310349;20;2827755;-46
2022/03/10 05:28:14;;;;;;;;;19.00;15.00;;;;;1.60;54.88;100514.00;6282496;20;2796099;-47
2022/03/10 05:30:47;;;;;;;;;15.83;12.67;;;;;1.23;55.91;100519.72;6328174;20;1821222;-46
2022/03/10 05:33:16;;;;;;;;;9.00;8.50;;;;;1.65;55.11;100527.22;6316168;20;2753426;-46
2022/03/10 05:35:43;;;;;;;;;11.67;9.00;;;;;1.79;54.39;100543.81;6289712;20;3472161;-46
2022/03/10 05:38:11;;;;;;;;;17.00;16.00;;;;;2.02;53.80;100543.50;6279757;20;2827375;-47
2022/03/10 05:40:41;;;;;;;;;21.00;17.50;;;;;2.05;54.03;100539.94;6286289;20;2824198;-47
2022/03/10 05:43:09;;;;;;;;;17.50;16.50;;;;;1.92;54.25;100539.22;6285219;20;2828415;-45
2022/03/10 05:45:40;;;;;;;;;22.67;16.33;;;;;1.95;54.39;100548.03;6310316;20;2837814;-46
2022/03/10 05:48:08;;;;;;;;;21.00;17.00;;;;;1.70;54.83;100534.19;6320250;20;2841893;-46
2022/03/10 05:50:37;;;;;;;;;8.50;5.75;;;;;1.51;55.21;100543.25;6302657;20;1810204;-49
2022/03/10 05:53:06;;;;;;;;;14.50;14.00;;;;;1.73;55.17;100551.81;6315423;20;2814861;-44
2022/03/10 05:55:35;;;;;;;;;23.33;18.33;;;;;1.65;55.10;100556.31;6286842;20;3562752;-44
2022/03/10 05:58:04;;;;;;;;;14.67;13.33;;;;;2.44;53.85;100574.75;6317227;20;3523141;-45
2022/03/10 06:00:32;;;;;;;;;10.00;10.00;;;;;2.41;53.70;100576.53;6313628;20;2761824;-44
2022/03/10 06:03:01;;;;;;;;;24.00;24.00;;;;;2.88;52.90;100581.19;6284092;20;3564810;-47
2022/03/10 06:05:29;;;;;;;;;16.00;12.00;;;;;2.05;54.03;100571.72;6314694;20;2785671;-44
2022/03/10 06:07:57;;;;;;;;;15.00;14.33;;;;;1.84;55.84;100572.88;6282873;20;2807620;-44
2022/03/10 06:10:26;;;;;;;;;29.00;23.00;;;;;1.81;55.16;100568.47;6315303;20;2844051;-42
2022/03/10 06:12:53;;;;;;;;;8.00;8.00;;;;;1.56;55.07;100580.25;6284385;20;2748160;-44
2022/03/10 06:15:21;;;;;;;;;26.50;19.00;;;;;1.75;55.27;100589.75;6286444;20;2833619;-43
2022/03/10 06:17:51;;;;;;;;;19.50;14.50;;;;;1.63;55.60;100589.88;6285191;20;2508584;-44
2022/03/10 06:20:20;;;;;;;;;31.00;23.00;;;;;1.87;54.78;100588.72;6282557;20;3577308;-43
2022/03/10 06:22:49;;;;;;;;;26.00;19.00;;;;;1.59;54.32;100590.81;6313949;20;3578420;-44
2022/03/10 06:25:16;;;;;;;;;21.00;14.50;;;;;1.73;54.26;100596.81;6316524;20;2804466;-45
2022/03/10 06:27:45;;;;;;;;;17.00;16.00;;;;;2.06;53.93;100594.69;6285119;20;3567004;-43
2022/03/10 06:30:13;;;;;;;;;40.50;34.50;;;;;1.68;54.42;100603.94;6312813;20;2500288;-47
2022/03/10 06:32:41;;;;;;;;;23.50;20.00;;;;;1.51;54.26;100604.97;6288086;20;2832692;-43
2022/03/10 06:35:12;;;;;;;;;27.33;24.33;;;;;1.64;54.41;100610.16;6284449;20;3559604;-44
2022/03/10 06:37:43;;;;;;;;;25.00;19.00;;;;;1.64;54.25;100608.38;6313991;20;2838788;-42
2022/03/10 06:40:13;;;;;;;;;25.00;17.00;;;;;1.71;54.02;100606.53;6283620;20;3554467;-43
2022/03/10 06:42:42;;;;;;;;;19.50;15.00;;;;;1.70;53.50;100613.59;6313323;20;2802355;-42
2022/03/10 06:45:10;;;;;;;;;32.00;32.00;;;;;1.62;53.49;100617.25;6313366;20;2500295;-44
2022/03/10 06:47:40;;;;;;;;;25.33;19.33;;;;;1.66;53.03;100617.19;6282923;20;3555446;-44
2022/03/10 06:50:09;;;;;;;;;30.00;27.00;;;;;1.96;52.61;100621.28;6311923;20;2854665;-44
2022/03/10 06:52:38;;;;;;;;;16.20;12.80;;;;;2.64;52.68;100625.72;6306242;20;2791909;-43
2022/03/10 06:55:08;;;;;;;;;10.25;10.25;;;;;1.88;51.60;100628.44;6304972;20;1825362;-43
2022/03/10 06:57:35;;;;;;;;;36.00;22.50;;;;;2.44;50.87;100638.38;6316577;20;2851369;-47
2022/03/10 07:00:06;;;;;;;;;31.50;28.50;;;;;2.51;50.59;100654.16;6276587;20;2500363;-43
2022/03/10 07:02:34;;;;;;;;;22.50;13.00;;;;;2.31;50.50;100642.94;6287826;20;2807571;-45
2022/03/10 07:05:04;;;;;;;;;28.67;27.67;;;;;2.51;49.41;100656.81;6286236;20;3573285;-44
2022/03/10 07:07:33;;;;;;;;;28.50;22.50;;;;;2.77;48.26;100659.13;6282505;20;2838109;-42
2022/03/10 07:10:00;;;;;;;;;15.00;12.00;;;;;2.49;48.10;100655.97;6282050;20;2781533;-44
2022/03/10 07:12:28;;;;;;;;;15.00;13.50;;;;;2.53;47.02;100656.81;6282757;20;2809647;-47
2022/03/10 07:14:57;;;;;;;;;18.00;14.00;;;;;3.52;45.39;100657.06;6284376;20;3552560;-47
2022/03/10 07:17:27;;;;;;;;;21.00;19.33;;;;;3.49;43.84;100670.41;6339242;20;3579591;-48
2022/03/10 07:19:56;;;;;;;;;19.33;15.33;;;;;2.99;45.04;100670.28;6280749;20;3556536;-46
2022/03/10 07:22:24;;;;;;;;;7.00;5.00;;;;;2.69;45.58;100661.00;6315477;20;3462792;-50
2022/03/10 07:24:55;;;;;;;;;21.67;16.00;;;;;2.36;44.16;100664.97;6316074;20;2811791;-52
2022/03/10 07:27:25;;;;;;;;;11.00;8.40;;;;;2.68;43.70;100675.16;6339613;20;2766001;-47
2022/03/10 07:29:55;;;;;;;;;10.00;10.00;;;;;2.88;43.23;100676.66;6312630;20;2789882;-50
2022/03/10 07:32:26;;;;;;;;;7.67;7.67;;;;;3.18;41.61;100676.19;6282268;20;3451334;-49
2022/03/10 07:34:56;;;;;;;;;14.00;12.20;;;;;2.96;41.29;100677.44;6336806;20;2781556;-50
2022/03/10 07:37:24;;;;;;;;;14.67;11.33;;;;;2.77;40.14;100676.81;6281470;20;3511723;-52
2022/03/10 07:39:53;;;;;;;;;12.50;11.00;;;;;2.71;39.18;100693.66;6314493;20;2785661;-49
2022/03/10 07:42:21;;;;;;;;;8.00;5.50;;;;;2.40;38.74;100685.25;6284021;20;2750244;-48
2022/03/10 07:44:49;;;;;;;;;10.00;10.00;;;;;2.97;38.39;100681.81;6285224;20;3484694;-54
2022/03/10 07:47:17;;;;;;;;;14.00;10.00;;;;;2.86;39.58;100682.84;6280532;20;2776456;-53
2022/03/10 07:49:45;;;;;;;;;20.00;15.00;;;;;3.39;38.99;100690.03;6282936;20;2811846;-52
2022/03/10 07:52:13;;;;;;;;;8.00;8.00;;;;;2.88;39.39;100695.22;6317371;20;2736828;-55
2022/03/10 07:54:41;;;;;;;;;17.50;14.00;;;;;3.41;40.60;100689.09;6318441;20;2803493;-52
2022/03/10 07:57:09;;;;;;;;;6.00;5.00;;;;;3.55;38.43;100696.84;6287577;20;2750279;-55
2022/03/10 07:59:37;;;;;;;;;15.00;12.50;;;;;2.97;38.70;100703.03;6319427;20;2796519;-52
2022/03/10 08:02:06;;;;;;;;;13.25;12.75;;;;;3.01;38.61;100691.50;6306461;20;1819021;-52
2022/03/10 08:04:40;;;;;;;;;9.00;8.25;;;;;3.53;38.00;100701.31;6337044;20;1816011;-54
2022/03/10 08:07:08;;;;;;;;;4.25;4.00;;;;;3.12;39.34;100700.19;6337471;20;1815914;-53
2022/03/10 08:09:39;;;;;;;;;11.50;9.33;;;;;2.95;39.03;100695.13;6362050;20;1800361;-53
2022/03/10 08:12:08;;;;;;;;;13.00;9.33;;;;;3.06;39.42;100692.31;6289313;20;3489494;-52
2022/03/10 08:14:36;;;;;;;;;11.00;9.00;;;;;3.49;38.71;100689.00;6316684;20;3475285;-54
2022/03/10 08:17:04;;;;;;;;;9.00;8.00;;;;;3.06;38.02;100684.34;6287573;20;2752380;-53
2022/03/10 08:19:32;;;;;;;;;15.50;10.00;;;;;3.32;38.71;100689.28;6286771;20;2781527;-52
2022/03/10 08:22:00;;;;;;;;;12.00;12.00;;;;;3.21;38.00;100684.13;6287928;20;2790858;-54
2022/03/10 08:24:28;;;;;;;;;8.00;5.50;;;;;3.24;38.50;100689.38;6286140;20;2749225;-49
2022/03/10 08:26:58;;;;;;;;;0.00;0.00;;;;;3.07;38.73;100686.09;6322007;20;2459721;-47
2022/03/10 08:29:26;;;;;;;;;15.00;7.00;;;;;3.28;38.65;100680.47;6319098;20;2782631;-51
2022/03/10 08:31:53;;;;;;;;;10.00;8.00;;;;;3.30;38.80;100676.00;6288462;20;2658585;-49
2022/03/10 08:34:21;;;;;;;;;9.00;9.00;;;;;3.13;38.06;100678.03;6284570;20;3462807;-51
2022/03/10 08:36:57;;;;;;;;;8.75;4.75;;;;;3.77;38.07;100669.94;6337906;20;1821211;-50
2022/03/10 08:39:26;;;;;;;;;19.00;16.67;;;;;3.86;38.55;100667.09;6317096;20;3561738;-50
2022/03/10 08:41:54;;;;;;;;;6.67;3.33;;;;;3.96;37.80;100677.53;6320382;20;3471048;-50
2022/03/10 08:44:23;;;;;;;;;14.33;12.33;;;;;3.55;37.89;100683.56;6287381;20;3517935;-50
2022/03/10 08:46:52;;;;;;;;;12.50;10.25;;;;;3.12;38.54;100675.44;6334696;20;1814014;-49
2022/03/10 08:49:22;;;;;;;;;10.83;7.50;;;;;3.74;38.65;100671.75;6359852;20;1816967;-48
2022/03/10 08:51:50;;;;;;;;;17.00;13.50;;;;;4.06;37.78;100695.97;6290356;20;2806651;-49
2022/03/10 08:54:22;;;;;;;;;14.40;6.00;;;;;4.09;39.04;100682.63;6309999;20;2783599;-49
2022/03/10 08:56:50;;;;;;;;;13.50;13.50;;;;;3.64;38.37;100678.13;6285227;20;2804396;-49
2022/03/10 08:59:18;;;;;;;;;14.00;12.50;;;;;3.68;37.71;100681.59;6289113;20;2784612;-50
2022/03/10 09:01:46;;;;;;;;;15.33;9.00;;;;;4.13;37.40;100685.19;6287165;20;3495146;-47
2022/03/10 09:04:14;;;;;;;;;11.00;9.00;;;;;3.92;36.89;100674.94;6286799;20;2757554;-49
2022/03/10 09:06:45;;;;;;;;;19.00;14.57;;;;;4.93;35.96;100688.88;6356969;20;1816948;-50
2022/03/10 09:09:14;;;;;;;;;11.50;10.00;;;;;4.53;36.81;100679.09;6318472;20;2767089;-48
2022/03/10 09:11:44;;;;;;;;;6.67;5.50;;;;;3.71;36.73;100689.50;6329573;20;1803506;-51
2022/03/10 09:14:12;;;;;;;;;13.00;13.00;;;;;3.95;38.01;100706.81;6288196;20;2787761;-52
2022/03/10 09:16:40;;;;;;;;;11.00;7.00;;;;;4.03;37.75;100696.00;6286751;20;2766932;-54
2022/03/10 09:19:11;;;;;;;;;9.67;6.67;;;;;4.29;37.62;100690.19;6325658;20;1805514;-51
2022/03/10 09:21:39;;;;;;;;;25.67;14.00;;;;;4.35;37.54;100696.28;6288648;20;2825292;-53
2022/03/10 09:24:08;;;;;;;;;7.50;7.50;;;;;4.46;37.57;100698.72;6335933;20;1812925;-49
2022/03/10 09:26:39;;;;;;;;;14.00;14.00;;;;;4.60;37.96;100696.66;6315806;20;2789863;-56
2022/03/10 09:29:09;;;;;;;;;14.80;13.60;;;;;4.43;37.66;100704.13;6310382;20;2784729;-55
2022/03/10 09:31:37;;;;;;;;;2.00;2.00;;;;;4.43;34.09;100709.44;6291804;20;3454460;-53
2022/03/10 09:34:05;;;;;;;;;14.50;10.00;;;;;4.60;34.89;100706.41;6316812;20;2788772;-54
2022/03/10 09:36:35;;;;;;;;;15.40;10.00;;;;;4.75;34.56;100706.09;6309607;20;2788908;-47
2022/03/10 09:39:03;;;;;;;;;14.00;11.00;;;;;4.98;33.88;100713.59;6286455;20;2773157;-53
2022/03/10 09:41:31;;;;;;;;;9.00;4.00;;;;;5.07;34.97;100721.34;6284433;20;3481460;-52
2022/03/10 09:44:00;;;;;;;;;20.00;20.00;;;;;4.35;35.23;100708.72;6313646;20;3555575;-56
2022/03/10 09:46:30;;;;;;;;;22.67;16.00;;;;;4.48;35.96;100702.25;6284523;20;2826571;-50
2022/03/10 09:48:59;;;;;;;;;31.00;28.00;;;;;4.57;35.38;100706.47;6313976;20;2734615;-53
2022/03/10 09:51:29;;;;;;;;;14.80;11.60;;;;;4.62;35.06;100700.16;6339722;20;2802368;-50
2022/03/10 09:53:56;;;;;;;;;5.00;5.00;;;;;4.81;35.43;100715.72;6289899;20;3451304;-53
2022/03/10 09:56:24;;;;;;;;;10.50;10.50;;;;;5.07;35.62;100717.81;6315769;20;2785680;-47
2022/03/10 09:58:54;;;;;;;;;17.40;14.80;;;;;4.93;36.19;100715.47;6308592;20;2808718;-53
2022/03/10 10:01:22;;;;;;;;;17.00;16.00;;;;;5.03;36.35;100709.03;6290151;20;2835662;-47
2022/03/10 10:03:52;;;;;;;;;12.60;10.00;;;;;5.45;36.10;100710.72;6311860;20;2766917;-51
2022/03/10 10:06:20;;;;;;;;;15.33;12.67;;;;;6.02;34.87;100704.00;6285862;20;2805462;-51
2022/03/10 10:08:57;;;;;;;;;14.00;10.00;;;;;5.16;35.31;100716.72;6315790;20;2787789;-54
2022/03/10 10:11:35;;;;;;;;;26.00;17.50;;;;;4.63;35.67;100716.97;6287970;20;2836702;-55
2022/03/10 10:14:06;;;;;;;;;19.00;16.17;;;;;5.04;35.16;100720.56;6305764;20;2822259;-49
2022/03/10 10:16:50;;;;;;;;;14.00;10.50;;;;;5.24;35.62;100731.66;6317469;20;2786812;-51
2022/03/10 10:19:20;;;;;;;;;20.00;16.33;;;;;5.52;35.49;100719.47;6286218;20;3563780;-52
2022/03/10 10:22:12;;;;;;;;;14.50;10.00;;;;;5.21;35.83;100728.16;6315286;20;2779454;-53
2022/03/10 10:24:49;;;;;;;;;11.00;9.00;;;;;4.68;34.66;100736.38;6282136;20;2778409;-51
2022/03/10 10:27:23;;;;;;;;;16.67;14.67;;;;;4.76;33.85;100718.47;6287497;20;2815344;-47
2022/03/10 10:29:56;;;;;;;;;17.33;14.67;;;;;5.28;34.45;100727.97;6313477;20;3553359;-50
2022/03/10 10:32:35;;;;;;;;;11.00;11.00;;;;;5.59;36.10;100718.41;6314943;20;2785696;-52
2022/03/10 10:35:20;;;;;;;;;13.50;12.00;;;;;5.35;33.44;100726.06;6286448;20;2800271;-52
2022/03/10 10:37:56;;;;;;;;;2.75;2.75;;;;;5.05;34.62;100731.19;6306122;20;1820215;-52
2022/03/10 10:40:31;;;;;;;;;13.00;13.00;;;;;5.42;34.23;100730.31;6312477;20;2814875;-52
2022/03/10 10:43:03;;;;;;;;;15.60;14.20;;;;;5.11;34.76;100740.81;6310295;20;2815882;-49
2022/03/10 10:45:41;;;;;;;;;15.67;13.33;;;;;5.43;32.83;100721.44;6280910;20;3529473;-53
2022/03/10 10:48:12;;;;;;;;;10.50;3.00;;;;;4.96;33.56;100727.84;6316296;20;2778452;-48
2022/03/10 10:50:46;;;;;;;;;20.00;13.50;;;;;5.71;32.96;100726.97;6284414;20;2810709;-53
2022/03/10 10:53:36;;;;;;;;;11.25;9.75;;;;;5.31;32.81;100727.03;6300600;20;1830617;-52
2022/03/10 10:56:06;;;;;;;;;9.00;6.00;;;;;5.14;32.81;100729.22;6314460;20;2753413;-50
2022/03/10 10:58:35;;;;;;;;;22.00;18.33;;;;;4.78;33.41;100731.75;6282713;20;2816081;-49
2022/03/10 11:01:06;;;;;;;;;22.50;15.00;;;;;4.93;33.66;100731.44;6313873;20;2835682;-55
2022/03/10 11:03:37;;;;;;;;;6.67;6.67;;;;;5.39;33.46;100738.38;6286797;20;3441895;-52
2022/03/10 11:06:04;;;;;;;;;12.00;8.00;;;;;5.32;34.03;100728.81;6314434;20;2766922;-53
2022/03/10 11:08:33;;;;;;;;;22.00;16.67;;;;;5.31;33.73;100727.03;6280840;20;3573159;-51
2022/03/10 11:11:02;;;;;;;;;11.00;9.33;;;;;5.96;33.42;100739.69;6341445;20;1919079;-50
2022/03/10 11:13:33;;;;;;;;;12.57;11.00;;;;;5.45;33.50;100740.91;6320981;20;1819034;-49
2022/03/10 11:16:07;;;;;;;;;17.00;17.00;;;;;5.56;32.91;100743.31;6313618;20;3555433;-51
2022/03/10 11:18:36;;;;;;;;;18.00;13.00;;;;;6.26;33.40;100739.81;6280475;20;2817962;-50
2022/03/10 11:21:32;;;;;;;;;15.67;13.00;;;;;5.26;33.73;100734.25;6283325;20;3519088;-51